Startpagina
METAR-TAF:

METAR-TAF

Vliegvelden :

Luchthaven van Khartoem

Khartoem, Soedan

breedte: 15-36N, lengte: 032-33E, hoogte: 382 m

Actueel weer

Dit bericht is 34 minuten geleden gemaakt, om 23:30 UTC
Wind 7 kt uit het noordnoordoosten
Temperatuur 28°C
Vochtigheid 11%
Druk 1009 hPa
Zicht 10 km of meer
geen wolken onder 1500 m en geen cumulonimbus

METAR: HSSS 212330Z 03007KT CAVOK 28/M05 Q1009 NOSIG

Tijdstip: 03:04 (00:04 UTC)

Verwachting

Dit bericht is 1 uur en het 4 minuten geleden gemaakt, om 23:00 UTC
Verwachting geldig van 22 om 00 UTC tot 23 om 06 UTC
Wind 12 kt uit het noorden met uitschieters tot 20 kt
Zicht 10 km of meer
geen wolken onder 1500 m en geen cumulonimbus

TAF: HSSS 212300Z 2200/2306 36012G20KT CAVOK

Waarnemingen en weersverwachtingen van meer dan 4000 vliegvelden (METAR en TAF).

De beschikbare stations zijn de gele en rode punten op de kaart.

Ga met uw muis naar het station om de naam te zien.

Klik dan om waarnemingen en weersverwachtingen te zien.

kaart wijzigen: klik op de groene knoppen met een zwart kruis om in te zoomen, op de groene knop met een streepje om uit te zoomen of op de groene pijlen voor aangrenzende kaarten.


METAR-TAF: